Prescott, Arizona
Current Conditions -  °F | °C
As of 6:53 AM on Monday 24 Nov 2014 (Local Time) from KPRC Reporting Station
Clear Clear  
Wind Chill: 24°   Ceiling: Unl
Heat Index: 24°   Visibility: 10mi
Dew Point:   Wind: 0mph
Humidity: 38%   Direction: NA
Pressure: 30.25"   Gusts: NA
Location:  34.54°N, 112.47°W
Report Text: KPRC 241353Z 00000KT 10SM CLR M04/M17 A3025 RMK AO2 SLP247 T10441167
Loading
Personal Weather Stations






























Interactive Weather Map New forecast layout! Learn more

10-Day Weather Forecast

Advertisements
Track Severe Weather on mobile